sensor_id;sensor_type;location;lat;lon;timestamp;P1;durP1;ratioP1;P2;durP2;ratioP2
27003;SDS011;14546;47.590;19.022;2023-07-13T00:01:27;10.80;;;4.18;;
27003;SDS011;14546;47.590;19.022;2023-07-13T00:03:54;7.97;;;4.35;;
27003;SDS011;14546;47.590;19.022;2023-07-13T00:06:20;8.15;;;3.50;;
27003;SDS011;14546;47.590;19.022;2023-07-13T00:08:47;8.50;;;3.47;;
27003;SDS011;14546;47.590;19.022;2023-07-13T00:11:14;5.70;;;3.20;;
27003;SDS011;14546;47.590;19.022;2023-07-13T00:13:41;5.78;;;3.42;;
27003;SDS011;14546;47.590;19.022;2023-07-13T00:16:09;8.90;;;3.53;;
27003;SDS011;14546;47.590;19.022;2023-07-13T00:18:35;9.30;;;3.05;;
27003;SDS011;14546;47.590;19.022;2023-07-13T00:21:02;6.75;;;2.08;;
27003;SDS011;14546;47.590;19.022;2023-07-13T00:23:32;6.63;;;2.75;;
27003;SDS011;14546;47.590;19.022;2023-07-13T00:26:00;19.52;;;4.03;;
27003;SDS011;14546;47.590;19.022;2023-07-13T00:28:26;11.25;;;4.22;;
27003;SDS011;14546;47.590;19.022;2023-07-13T00:30:53;9.32;;;4.32;;
27003;SDS011;14546;47.590;19.022;2023-07-13T00:33:19;14.95;;;4.38;;
27003;SDS011;14546;47.590;19.022;2023-07-13T00:35:45;9.82;;;4.00;;
27003;SDS011;14546;47.590;19.022;2023-07-13T00:38:12;18.48;;;4.78;;
27003;SDS011;14546;47.590;19.022;2023-07-13T00:40:38;7.97;;;4.05;;
27003;SDS011;14546;47.590;19.022;2023-07-13T00:43:09;10.30;;;4.20;;
27003;SDS011;14546;47.590;19.022;2023-07-13T00:48:07;6.95;;;4.15;;
27003;SDS011;14546;47.590;19.022;2023-07-13T00:50:33;8.45;;;4.30;;
27003;SDS011;14546;47.590;19.022;2023-07-13T00:52:59;8.90;;;4.43;;
27003;SDS011;14546;47.590;19.022;2023-07-13T00:55:25;10.85;;;4.50;;
27003;SDS011;14546;47.590;19.022;2023-07-13T00:57:52;9.82;;;4.05;;
27003;SDS011;14546;47.590;19.022;2023-07-13T01:00:18;8.85;;;4.38;;
27003;SDS011;14546;47.590;19.022;2023-07-13T01:02:47;10.18;;;4.38;;
27003;SDS011;14546;47.590;19.022;2023-07-13T01:05:14;9.40;;;3.80;;
27003;SDS011;14546;47.590;19.022;2023-07-13T01:07:42;7.65;;;4.20;;
27003;SDS011;14546;47.590;19.022;2023-07-13T01:10:11;27.70;;;4.90;;
27003;SDS011;14546;47.590;19.022;2023-07-13T01:12:38;7.47;;;3.97;;
27003;SDS011;14546;47.590;19.022;2023-07-13T01:15:04;6.00;;;4.25;;
27003;SDS011;14546;47.590;19.022;2023-07-13T01:17:32;10.73;;;3.85;;
27003;SDS011;14546;47.590;19.022;2023-07-13T01:19:58;5.97;;;4.20;;
27003;SDS011;14546;47.590;19.022;2023-07-13T01:22:25;7.93;;;4.40;;
27003;SDS011;14546;47.590;19.022;2023-07-13T01:24:53;8.25;;;4.40;;
27003;SDS011;14546;47.590;19.022;2023-07-13T01:27:23;15.40;;;4.68;;
27003;SDS011;14546;47.590;19.022;2023-07-13T01:29:50;5.95;;;3.78;;
27003;SDS011;14546;47.590;19.022;2023-07-13T01:32:19;8.30;;;3.83;;
27003;SDS011;14546;47.590;19.022;2023-07-13T01:34:49;9.63;;;4.15;;
27003;SDS011;14546;47.590;19.022;2023-07-13T01:37:21;9.30;;;3.58;;
27003;SDS011;14546;47.590;19.022;2023-07-13T01:39:48;4.55;;;3.42;;
27003;SDS011;14546;47.590;19.022;2023-07-13T01:42:14;9.68;;;3.80;;
27003;SDS011;14546;47.590;19.022;2023-07-13T01:44:40;5.72;;;3.80;;
27003;SDS011;14546;47.590;19.022;2023-07-13T01:47:06;8.43;;;3.88;;
27003;SDS011;14546;47.590;19.022;2023-07-13T01:49:32;5.63;;;4.00;;
27003;SDS011;14546;47.590;19.022;2023-07-13T01:51:58;6.03;;;3.53;;
27003;SDS011;14546;47.590;19.022;2023-07-13T01:54:23;9.38;;;3.97;;
27003;SDS011;14546;47.590;19.022;2023-07-13T01:56:49;8.57;;;3.80;;
27003;SDS011;14546;47.590;19.022;2023-07-13T01:59:15;7.93;;;4.55;;
27003;SDS011;14546;47.590;19.022;2023-07-13T02:01:40;6.07;;;3.70;;
27003;SDS011;14546;47.590;19.022;2023-07-13T02:04:06;7.28;;;3.70;;
27003;SDS011;14546;47.590;19.022;2023-07-13T02:06:32;6.32;;;4.07;;
27003;SDS011;14546;47.590;19.022;2023-07-13T02:08:58;5.70;;;4.05;;
27003;SDS011;14546;47.590;19.022;2023-07-13T02:11:24;6.07;;;4.40;;
27003;SDS011;14546;47.590;19.022;2023-07-13T02:13:51;7.95;;;4.15;;
27003;SDS011;14546;47.590;19.022;2023-07-13T02:16:17;7.38;;;3.90;;
27003;SDS011;14546;47.590;19.022;2023-07-13T02:18:43;17.65;;;4.38;;
27003;SDS011;14546;47.590;19.022;2023-07-13T02:21:09;7.38;;;4.18;;
27003;SDS011;14546;47.590;19.022;2023-07-13T02:23:35;5.47;;;4.20;;
27003;SDS011;14546;47.590;19.022;2023-07-13T02:26:01;7.63;;;4.22;;
27003;SDS011;14546;47.590;19.022;2023-07-13T02:28:28;6.47;;;4.03;;
27003;SDS011;14546;47.590;19.022;2023-07-13T02:30:54;9.35;;;4.60;;
27003;SDS011;14546;47.590;19.022;2023-07-13T02:33:21;8.20;;;4.93;;
27003;SDS011;14546;47.590;19.022;2023-07-13T02:35:47;9.18;;;5.30;;
27003;SDS011;14546;47.590;19.022;2023-07-13T02:38:13;12.70;;;5.25;;
27003;SDS011;14546;47.590;19.022;2023-07-13T02:40:39;12.32;;;5.20;;
27003;SDS011;14546;47.590;19.022;2023-07-13T02:43:05;6.95;;;3.83;;
27003;SDS011;14546;47.590;19.022;2023-07-13T02:45:31;9.15;;;4.53;;
27003;SDS011;14546;47.590;19.022;2023-07-13T02:47:57;10.25;;;4.20;;
27003;SDS011;14546;47.590;19.022;2023-07-13T02:50:23;7.85;;;4.07;;
27003;SDS011;14546;47.590;19.022;2023-07-13T02:52:49;9.27;;;4.28;;
27003;SDS011;14546;47.590;19.022;2023-07-13T02:55:15;8.02;;;3.65;;
27003;SDS011;14546;47.590;19.022;2023-07-13T02:57:40;9.90;;;4.55;;
27003;SDS011;14546;47.590;19.022;2023-07-13T03:00:09;11.15;;;4.20;;
27003;SDS011;14546;47.590;19.022;2023-07-13T03:02:36;9.55;;;3.80;;
27003;SDS011;14546;47.590;19.022;2023-07-13T03:05:02;9.27;;;3.92;;
27003;SDS011;14546;47.590;19.022;2023-07-13T03:07:29;8.02;;;3.80;;
27003;SDS011;14546;47.590;19.022;2023-07-13T03:09:56;7.68;;;3.85;;
27003;SDS011;14546;47.590;19.022;2023-07-13T03:12:23;6.75;;;4.22;;
27003;SDS011;14546;47.590;19.022;2023-07-13T03:14:49;6.35;;;3.85;;
27003;SDS011;14546;47.590;19.022;2023-07-13T03:17:15;7.93;;;4.57;;
27003;SDS011;14546;47.590;19.022;2023-07-13T03:19:41;7.38;;;4.20;;
27003;SDS011;14546;47.590;19.022;2023-07-13T03:22:09;7.00;;;3.70;;
27003;SDS011;14546;47.590;19.022;2023-07-13T03:24:35;9.38;;;4.03;;
27003;SDS011;14546;47.590;19.022;2023-07-13T03:27:03;7.13;;;4.03;;
27003;SDS011;14546;47.590;19.022;2023-07-13T03:29:29;9.38;;;4.60;;
27003;SDS011;14546;47.590;19.022;2023-07-13T03:31:55;20.63;;;4.70;;
27003;SDS011;14546;47.590;19.022;2023-07-13T03:34:21;7.28;;;4.10;;
27003;SDS011;14546;47.590;19.022;2023-07-13T03:36:47;9.25;;;4.95;;
27003;SDS011;14546;47.590;19.022;2023-07-13T03:39:13;9.88;;;4.32;;
27003;SDS011;14546;47.590;19.022;2023-07-13T03:41:38;10.23;;;4.10;;
27003;SDS011;14546;47.590;19.022;2023-07-13T03:44:04;6.80;;;4.22;;
27003;SDS011;14546;47.590;19.022;2023-07-13T03:46:32;8.48;;;4.60;;
27003;SDS011;14546;47.590;19.022;2023-07-13T03:49:00;7.25;;;4.20;;
27003;SDS011;14546;47.590;19.022;2023-07-13T03:51:26;10.18;;;4.13;;
27003;SDS011;14546;47.590;19.022;2023-07-13T03:53:52;5.30;;;3.70;;
27003;SDS011;14546;47.590;19.022;2023-07-13T03:56:18;5.72;;;3.75;;
27003;SDS011;14546;47.590;19.022;2023-07-13T03:58:46;8.38;;;4.20;;
27003;SDS011;14546;47.590;19.022;2023-07-13T04:01:14;8.45;;;4.10;;
27003;SDS011;14546;47.590;19.022;2023-07-13T04:03:41;7.95;;;4.25;;
27003;SDS011;14546;47.590;19.022;2023-07-13T04:06:08;7.13;;;3.90;;
27003;SDS011;14546;47.590;19.022;2023-07-13T04:08:47;6.88;;;3.80;;
27003;SDS011;14546;47.590;19.022;2023-07-13T04:11:15;9.57;;;4.43;;
27003;SDS011;14546;47.590;19.022;2023-07-13T04:13:41;6.85;;;3.75;;
27003;SDS011;14546;47.590;19.022;2023-07-13T04:16:06;8.43;;;4.33;;
27003;SDS011;14546;47.590;19.022;2023-07-13T04:18:32;10.13;;;4.45;;
27003;SDS011;14546;47.590;19.022;2023-07-13T04:20:58;10.90;;;4.13;;
27003;SDS011;14546;47.590;19.022;2023-07-13T04:23:24;11.27;;;4.18;;
27003;SDS011;14546;47.590;19.022;2023-07-13T04:25:51;8.88;;;4.30;;
27003;SDS011;14546;47.590;19.022;2023-07-13T04:28:21;7.40;;;4.15;;
27003;SDS011;14546;47.590;19.022;2023-07-13T04:30:48;8.75;;;4.78;;
27003;SDS011;14546;47.590;19.022;2023-07-13T04:33:15;8.32;;;4.22;;
27003;SDS011;14546;47.590;19.022;2023-07-13T04:35:43;8.35;;;5.10;;
27003;SDS011;14546;47.590;19.022;2023-07-13T04:38:10;7.40;;;4.03;;
27003;SDS011;14546;47.590;19.022;2023-07-13T04:40:36;12.23;;;4.22;;
27003;SDS011;14546;47.590;19.022;2023-07-13T04:43:03;9.68;;;3.75;;
27003;SDS011;14546;47.590;19.022;2023-07-13T04:45:30;9.60;;;4.25;;
27003;SDS011;14546;47.590;19.022;2023-07-13T04:47:56;11.57;;;4.25;;
27003;SDS011;14546;47.590;19.022;2023-07-13T04:50:22;11.10;;;3.80;;
27003;SDS011;14546;47.590;19.022;2023-07-13T04:52:51;5.68;;;3.17;;
27003;SDS011;14546;47.590;19.022;2023-07-13T04:55:18;9.35;;;3.72;;
27003;SDS011;14546;47.590;19.022;2023-07-13T04:57:44;7.95;;;4.20;;
27003;SDS011;14546;47.590;19.022;2023-07-13T05:00:11;11.13;;;3.70;;
27003;SDS011;14546;47.590;19.022;2023-07-13T05:02:38;12.20;;;3.65;;
27003;SDS011;14546;47.590;19.022;2023-07-13T05:05:05;12.80;;;3.53;;
27003;SDS011;14546;47.590;19.022;2023-07-13T05:07:31;10.25;;;3.75;;
27003;SDS011;14546;47.590;19.022;2023-07-13T05:09:59;10.50;;;4.50;;
27003;SDS011;14546;47.590;19.022;2023-07-13T05:12:26;14.98;;;5.65;;
27003;SDS011;14546;47.590;19.022;2023-07-13T05:14:52;17.08;;;6.07;;
27003;SDS011;14546;47.590;19.022;2023-07-13T05:17:18;16.88;;;6.60;;
27003;SDS011;14546;47.590;19.022;2023-07-13T05:19:45;14.82;;;6.78;;
27003;SDS011;14546;47.590;19.022;2023-07-13T05:22:11;28.98;;;8.25;;
27003;SDS011;14546;47.590;19.022;2023-07-13T05:24:37;19.83;;;6.93;;
27003;SDS011;14546;47.590;19.022;2023-07-13T05:27:05;13.35;;;6.30;;
27003;SDS011;14546;47.590;19.022;2023-07-13T05:29:31;12.75;;;5.20;;
27003;SDS011;14546;47.590;19.022;2023-07-13T05:31:58;8.68;;;5.13;;
27003;SDS011;14546;47.590;19.022;2023-07-13T05:34:24;13.05;;;5.03;;
27003;SDS011;14546;47.590;19.022;2023-07-13T05:36:50;12.02;;;5.57;;
27003;SDS011;14546;47.590;19.022;2023-07-13T05:39:17;11.07;;;6.35;;
27003;SDS011;14546;47.590;19.022;2023-07-13T05:41:44;17.80;;;6.13;;
27003;SDS011;14546;47.590;19.022;2023-07-13T05:44:10;13.93;;;6.50;;
27003;SDS011;14546;47.590;19.022;2023-07-13T05:46:36;9.02;;;5.45;;
27003;SDS011;14546;47.590;19.022;2023-07-13T05:49:02;13.75;;;5.22;;
27003;SDS011;14546;47.590;19.022;2023-07-13T05:51:28;10.68;;;5.13;;
27003;SDS011;14546;47.590;19.022;2023-07-13T05:53:54;7.25;;;4.45;;
27003;SDS011;14546;47.590;19.022;2023-07-13T05:56:20;13.25;;;5.38;;
27003;SDS011;14546;47.590;19.022;2023-07-13T05:58:47;8.95;;;5.03;;
27003;SDS011;14546;47.590;19.022;2023-07-13T06:01:15;10.07;;;5.03;;
27003;SDS011;14546;47.590;19.022;2023-07-13T06:03:41;17.33;;;4.53;;
27003;SDS011;14546;47.590;19.022;2023-07-13T06:06:08;8.70;;;3.83;;
27003;SDS011;14546;47.590;19.022;2023-07-13T06:08:35;11.38;;;4.25;;
27003;SDS011;14546;47.590;19.022;2023-07-13T06:11:12;10.60;;;4.60;;
27003;SDS011;14546;47.590;19.022;2023-07-13T06:13:41;9.25;;;4.75;;
27003;SDS011;14546;47.590;19.022;2023-07-13T06:16:07;11.63;;;5.13;;
27003;SDS011;14546;47.590;19.022;2023-07-13T06:18:35;8.30;;;4.38;;
27003;SDS011;14546;47.590;19.022;2023-07-13T06:21:08;10.55;;;5.20;;
27003;SDS011;14546;47.590;19.022;2023-07-13T06:23:36;6.22;;;4.00;;
27003;SDS011;14546;47.590;19.022;2023-07-13T06:26:03;9.20;;;4.50;;
27003;SDS011;14546;47.590;19.022;2023-07-13T06:28:29;7.20;;;4.00;;
27003;SDS011;14546;47.590;19.022;2023-07-13T06:30:56;8.20;;;3.05;;
27003;SDS011;14546;47.590;19.022;2023-07-13T06:33:23;5.97;;;3.42;;
27003;SDS011;14546;47.590;19.022;2023-07-13T06:35:49;6.85;;;3.50;;
27003;SDS011;14546;47.590;19.022;2023-07-13T06:38:15;6.82;;;3.70;;
27003;SDS011;14546;47.590;19.022;2023-07-13T06:40:41;6.40;;;3.90;;
27003;SDS011;14546;47.590;19.022;2023-07-13T06:43:07;6.45;;;3.47;;
27003;SDS011;14546;47.590;19.022;2023-07-13T06:45:39;7.63;;;3.95;;
27003;SDS011;14546;47.590;19.022;2023-07-13T06:48:07;7.25;;;3.33;;
27003;SDS011;14546;47.590;19.022;2023-07-13T06:50:33;6.47;;;3.55;;
27003;SDS011;14546;47.590;19.022;2023-07-13T06:52:59;9.48;;;4.22;;
27003;SDS011;14546;47.590;19.022;2023-07-13T06:55:25;7.22;;;3.80;;
27003;SDS011;14546;47.590;19.022;2023-07-13T06:57:51;4.03;;;3.08;;
27003;SDS011;14546;47.590;19.022;2023-07-13T07:00:17;10.25;;;3.60;;
27003;SDS011;14546;47.590;19.022;2023-07-13T07:02:43;6.40;;;3.67;;
27003;SDS011;14546;47.590;19.022;2023-07-13T07:05:09;7.22;;;3.33;;
27003;SDS011;14546;47.590;19.022;2023-07-13T07:07:35;6.70;;;3.50;;
27003;SDS011;14546;47.590;19.022;2023-07-13T07:10:01;6.32;;;3.17;;
27003;SDS011;14546;47.590;19.022;2023-07-13T07:12:28;5.18;;;3.00;;
27003;SDS011;14546;47.590;19.022;2023-07-13T07:14:55;4.30;;;3.15;;
27003;SDS011;14546;47.590;19.022;2023-07-13T07:17:21;6.25;;;2.85;;
27003;SDS011;14546;47.590;19.022;2023-07-13T07:19:48;6.13;;;3.25;;
27003;SDS011;14546;47.590;19.022;2023-07-13T07:22:14;5.22;;;2.78;;
27003;SDS011;14546;47.590;19.022;2023-07-13T07:24:39;5.50;;;2.90;;
27003;SDS011;14546;47.590;19.022;2023-07-13T07:27:05;5.38;;;3.10;;
27003;SDS011;14546;47.590;19.022;2023-07-13T07:29:31;4.05;;;2.70;;
27003;SDS011;14546;47.590;19.022;2023-07-13T07:31:58;6.13;;;2.72;;
27003;SDS011;14546;47.590;19.022;2023-07-13T07:34:25;4.93;;;3.05;;
27003;SDS011;14546;47.590;19.022;2023-07-13T07:36:51;4.93;;;3.15;;
27003;SDS011;14546;47.590;19.022;2023-07-13T07:39:17;3.17;;;2.60;;
27003;SDS011;14546;47.590;19.022;2023-07-13T07:41:44;5.30;;;2.55;;
27003;SDS011;14546;47.590;19.022;2023-07-13T07:44:10;8.02;;;3.08;;
27003;SDS011;14546;47.590;19.022;2023-07-13T07:46:37;4.68;;;2.50;;
27003;SDS011;14546;47.590;19.022;2023-07-13T07:49:03;4.32;;;2.78;;
27003;SDS011;14546;47.590;19.022;2023-07-13T07:51:29;3.83;;;2.88;;
27003;SDS011;14546;47.590;19.022;2023-07-13T07:53:55;5.63;;;2.42;;
27003;SDS011;14546;47.590;19.022;2023-07-13T07:56:21;5.03;;;2.60;;
27003;SDS011;14546;47.590;19.022;2023-07-13T07:58:47;4.30;;;2.65;;
27003;SDS011;14546;47.590;19.022;2023-07-13T08:01:13;4.78;;;2.53;;
27003;SDS011;14546;47.590;19.022;2023-07-13T08:03:39;5.55;;;2.70;;
27003;SDS011;14546;47.590;19.022;2023-07-13T08:06:05;7.85;;;3.08;;
27003;SDS011;14546;47.590;19.022;2023-07-13T08:08:31;4.45;;;2.72;;
27003;SDS011;14546;47.590;19.022;2023-07-13T08:10:57;7.78;;;3.40;;
27003;SDS011;14546;47.590;19.022;2023-07-13T08:13:22;5.93;;;3.20;;
27003;SDS011;14546;47.590;19.022;2023-07-13T08:15:48;6.70;;;2.85;;
27003;SDS011;14546;47.590;19.022;2023-07-13T08:18:15;4.55;;;2.85;;
27003;SDS011;14546;47.590;19.022;2023-07-13T08:20:41;7.53;;;2.70;;
27003;SDS011;14546;47.590;19.022;2023-07-13T08:23:07;10.80;;;3.42;;
27003;SDS011;14546;47.590;19.022;2023-07-13T08:25:35;6.90;;;2.85;;
27003;SDS011;14546;47.590;19.022;2023-07-13T08:28:02;3.30;;;2.35;;
27003;SDS011;14546;47.590;19.022;2023-07-13T08:30:28;4.38;;;2.78;;
27003;SDS011;14546;47.590;19.022;2023-07-13T08:32:54;6.38;;;3.42;;
27003;SDS011;14546;47.590;19.022;2023-07-13T08:35:20;6.55;;;2.72;;
27003;SDS011;14546;47.590;19.022;2023-07-13T08:37:46;4.70;;;2.90;;
27003;SDS011;14546;47.590;19.022;2023-07-13T08:40:13;5.25;;;2.70;;
27003;SDS011;14546;47.590;19.022;2023-07-13T08:42:44;3.25;;;2.75;;
27003;SDS011;14546;47.590;19.022;2023-07-13T08:47:49;6.13;;;2.65;;
27003;SDS011;14546;47.590;19.022;2023-07-13T08:50:26;4.18;;;3.05;;
27003;SDS011;14546;47.590;19.022;2023-07-13T08:52:55;3.60;;;2.63;;
27003;SDS011;14546;47.590;19.022;2023-07-13T08:55:26;9.65;;;3.10;;
27003;SDS011;14546;47.590;19.022;2023-07-13T08:58:05;3.67;;;2.70;;
27003;SDS011;14546;47.590;19.022;2023-07-13T09:00:41;9.75;;;2.85;;
27003;SDS011;14546;47.590;19.022;2023-07-13T09:05:38;4.35;;;2.72;;
27003;SDS011;14546;47.590;19.022;2023-07-13T09:10:50;4.55;;;2.97;;
27003;SDS011;14546;47.590;19.022;2023-07-13T09:15:53;6.10;;;2.67;;
27003;SDS011;14546;47.590;19.022;2023-07-13T09:18:21;9.38;;;2.60;;
27003;SDS011;14546;47.590;19.022;2023-07-13T09:20:54;8.43;;;2.97;;
27003;SDS011;14546;47.590;19.022;2023-07-13T09:23:22;4.68;;;2.55;;
27003;SDS011;14546;47.590;19.022;2023-07-13T09:25:49;4.05;;;2.58;;
27003;SDS011;14546;47.590;19.022;2023-07-13T09:28:29;6.50;;;2.60;;
27003;SDS011;14546;47.590;19.022;2023-07-13T09:33:40;5.85;;;2.78;;
27003;SDS011;14546;47.590;19.022;2023-07-13T09:46:34;6.28;;;2.97;;
27003;SDS011;14546;47.590;19.022;2023-07-13T09:49:00;5.75;;;2.92;;
27003;SDS011;14546;47.590;19.022;2023-07-13T09:51:26;6.85;;;2.90;;
27003;SDS011;14546;47.590;19.022;2023-07-13T09:53:52;5.55;;;3.22;;
27003;SDS011;14546;47.590;19.022;2023-07-13T09:56:37;5.85;;;2.95;;
27003;SDS011;14546;47.590;19.022;2023-07-13T09:59:03;6.53;;;3.33;;
27003;SDS011;14546;47.590;19.022;2023-07-13T10:01:36;6.47;;;3.08;;
27003;SDS011;14546;47.590;19.022;2023-07-13T10:04:10;7.95;;;2.95;;
27003;SDS011;14546;47.590;19.022;2023-07-13T10:06:38;3.78;;;2.72;;
27003;SDS011;14546;47.590;19.022;2023-07-13T10:09:06;4.43;;;2.85;;
27003;SDS011;14546;47.590;19.022;2023-07-13T10:11:34;5.85;;;2.88;;
27003;SDS011;14546;47.590;19.022;2023-07-13T10:14:07;6.28;;;2.92;;
27003;SDS011;14546;47.590;19.022;2023-07-13T10:16:35;6.60;;;3.15;;
27003;SDS011;14546;47.590;19.022;2023-07-13T10:19:02;24.70;;;3.20;;
27003;SDS011;14546;47.590;19.022;2023-07-13T10:21:37;6.15;;;2.55;;
27003;SDS011;14546;47.590;19.022;2023-07-13T10:24:18;8.02;;;3.00;;
27003;SDS011;14546;47.590;19.022;2023-07-13T10:26:49;3.40;;;2.75;;
27003;SDS011;14546;47.590;19.022;2023-07-13T10:29:17;6.72;;;2.85;;
27003;SDS011;14546;47.590;19.022;2023-07-13T10:31:45;5.43;;;2.80;;
27003;SDS011;14546;47.590;19.022;2023-07-13T10:34:11;5.32;;;2.90;;
27003;SDS011;14546;47.590;19.022;2023-07-13T10:36:45;7.53;;;2.78;;
27003;SDS011;14546;47.590;19.022;2023-07-13T10:39:16;4.40;;;2.78;;
27003;SDS011;14546;47.590;19.022;2023-07-13T10:41:43;5.35;;;2.78;;
27003;SDS011;14546;47.590;19.022;2023-07-13T10:44:15;6.82;;;2.97;;
27003;SDS011;14546;47.590;19.022;2023-07-13T10:46:44;7.30;;;3.00;;
27003;SDS011;14546;47.590;19.022;2023-07-13T10:49:12;5.72;;;2.92;;
27003;SDS011;14546;47.590;19.022;2023-07-13T10:51:39;6.78;;;2.58;;
27003;SDS011;14546;47.590;19.022;2023-07-13T10:54:20;6.22;;;2.63;;
27003;SDS011;14546;47.590;19.022;2023-07-13T10:56:50;4.70;;;2.50;;
27003;SDS011;14546;47.590;19.022;2023-07-13T11:02:00;3.83;;;2.70;;
27003;SDS011;14546;47.590;19.022;2023-07-13T11:04:56;5.15;;;3.03;;
27003;SDS011;14546;47.590;19.022;2023-07-13T11:07:29;6.10;;;2.35;;
27003;SDS011;14546;47.590;19.022;2023-07-13T11:09:59;4.63;;;2.22;;
27003;SDS011;14546;47.590;19.022;2023-07-13T11:12:28;6.35;;;2.30;;
27003;SDS011;14546;47.590;19.022;2023-07-13T11:19:51;11.85;;;2.83;;
27003;SDS011;14546;47.590;19.022;2023-07-13T11:22:21;9.90;;;2.85;;
27003;SDS011;14546;47.590;19.022;2023-07-13T11:32:44;6.93;;;2.50;;
27003;SDS011;14546;47.590;19.022;2023-07-13T11:35:14;5.88;;;2.15;;
27003;SDS011;14546;47.590;19.022;2023-07-13T11:37:44;2.22;;;1.73;;
27003;SDS011;14546;47.590;19.022;2023-07-13T11:40:14;4.95;;;2.22;;
27003;SDS011;14546;47.590;19.022;2023-07-13T11:42:40;2.40;;;1.77;;
27003;SDS011;14546;47.590;19.022;2023-07-13T11:45:18;6.70;;;2.55;;
27003;SDS011;14546;47.590;19.022;2023-07-13T11:47:48;6.53;;;2.08;;
27003;SDS011;14546;47.590;19.022;2023-07-13T11:50:20;5.00;;;2.38;;
27003;SDS011;14546;47.590;19.022;2023-07-13T11:52:48;3.38;;;2.00;;
27003;SDS011;14546;47.590;19.022;2023-07-13T11:55:18;6.28;;;1.80;;
27003;SDS011;14546;47.590;19.022;2023-07-13T11:57:51;4.93;;;2.22;;
27003;SDS011;14546;47.590;19.022;2023-07-13T12:00:23;3.92;;;2.10;;
27003;SDS011;14546;47.590;19.022;2023-07-13T12:02:52;4.73;;;2.23;;
27003;SDS011;14546;47.590;19.022;2023-07-13T12:05:19;4.47;;;2.20;;
27003;SDS011;14546;47.590;19.022;2023-07-13T12:07:49;7.00;;;2.20;;
27003;SDS011;14546;47.590;19.022;2023-07-13T12:10:19;3.38;;;2.10;;
27003;SDS011;14546;47.590;19.022;2023-07-13T12:12:56;5.97;;;2.70;;
27003;SDS011;14546;47.590;19.022;2023-07-13T12:15:23;4.65;;;2.60;;
27003;SDS011;14546;47.590;19.022;2023-07-13T12:17:49;3.67;;;2.40;;
27003;SDS011;14546;47.590;19.022;2023-07-13T12:20:35;5.15;;;2.60;;
27003;SDS011;14546;47.590;19.022;2023-07-13T12:23:05;4.70;;;2.28;;
27003;SDS011;14546;47.590;19.022;2023-07-13T12:25:31;4.07;;;2.30;;
27003;SDS011;14546;47.590;19.022;2023-07-13T12:27:57;5.55;;;2.67;;
27003;SDS011;14546;47.590;19.022;2023-07-13T12:30:24;5.07;;;2.47;;
27003;SDS011;14546;47.590;19.022;2023-07-13T12:33:07;3.20;;;2.50;;
27003;SDS011;14546;47.590;19.022;2023-07-13T12:35:38;3.83;;;2.45;;
27003;SDS011;14546;47.590;19.022;2023-07-13T12:38:07;3.08;;;2.40;;
27003;SDS011;14546;47.590;19.022;2023-07-13T12:40:34;4.95;;;2.20;;
27003;SDS011;14546;47.590;19.022;2023-07-13T12:43:02;2.95;;;2.60;;
27003;SDS011;14546;47.590;19.022;2023-07-13T12:45:30;2.95;;;2.33;;
27003;SDS011;14546;47.590;19.022;2023-07-13T12:47:57;3.50;;;2.30;;
27003;SDS011;14546;47.590;19.022;2023-07-13T12:50:30;3.05;;;2.30;;
27003;SDS011;14546;47.590;19.022;2023-07-13T12:55:25;3.10;;;2.03;;
27003;SDS011;14546;47.590;19.022;2023-07-13T12:57:55;3.92;;;2.30;;
27003;SDS011;14546;47.590;19.022;2023-07-13T13:02:50;2.60;;;2.10;;
27003;SDS011;14546;47.590;19.022;2023-07-13T13:05:16;3.55;;;2.28;;
27003;SDS011;14546;47.590;19.022;2023-07-13T13:07:42;3.78;;;2.10;;
27003;SDS011;14546;47.590;19.022;2023-07-13T13:10:14;4.45;;;2.38;;
27003;SDS011;14546;47.590;19.022;2023-07-13T13:12:40;3.70;;;2.35;;
27003;SDS011;14546;47.590;19.022;2023-07-13T13:15:07;3.72;;;2.20;;
27003;SDS011;14546;47.590;19.022;2023-07-13T13:17:34;3.38;;;2.08;;
27003;SDS011;14546;47.590;19.022;2023-07-13T13:20:00;5.63;;;2.30;;
27003;SDS011;14546;47.590;19.022;2023-07-13T13:22:26;3.05;;;2.40;;
27003;SDS011;14546;47.590;19.022;2023-07-13T13:24:52;3.55;;;2.03;;
27003;SDS011;14546;47.590;19.022;2023-07-13T13:27:18;4.50;;;2.30;;
27003;SDS011;14546;47.590;19.022;2023-07-13T13:29:45;3.30;;;2.20;;
27003;SDS011;14546;47.590;19.022;2023-07-13T13:32:12;4.85;;;2.13;;
27003;SDS011;14546;47.590;19.022;2023-07-13T13:34:38;13.18;;;2.70;;
27003;SDS011;14546;47.590;19.022;2023-07-13T13:37:08;2.75;;;2.00;;
27003;SDS011;14546;47.590;19.022;2023-07-13T13:39:37;2.58;;;2.08;;
27003;SDS011;14546;47.590;19.022;2023-07-13T13:42:03;3.40;;;2.40;;
27003;SDS011;14546;47.590;19.022;2023-07-13T13:44:30;5.65;;;2.30;;
27003;SDS011;14546;47.590;19.022;2023-07-13T13:46:56;3.92;;;2.38;;
27003;SDS011;14546;47.590;19.022;2023-07-13T13:49:24;5.07;;;2.53;;
27003;SDS011;14546;47.590;19.022;2023-07-13T13:51:50;3.15;;;1.88;;
27003;SDS011;14546;47.590;19.022;2023-07-13T13:54:16;2.33;;;2.10;;
27003;SDS011;14546;47.590;19.022;2023-07-13T13:56:43;3.97;;;2.05;;
27003;SDS011;14546;47.590;19.022;2023-07-13T13:59:10;3.20;;;2.33;;
27003;SDS011;14546;47.590;19.022;2023-07-13T14:01:36;3.65;;;2.42;;
27003;SDS011;14546;47.590;19.022;2023-07-13T14:04:02;3.92;;;2.20;;
27003;SDS011;14546;47.590;19.022;2023-07-13T14:06:29;4.32;;;2.28;;
27003;SDS011;14546;47.590;19.022;2023-07-13T14:08:55;4.07;;;2.35;;
27003;SDS011;14546;47.590;19.022;2023-07-13T14:11:21;4.00;;;2.15;;
27003;SDS011;14546;47.590;19.022;2023-07-13T14:13:48;7.00;;;2.30;;
27003;SDS011;14546;47.590;19.022;2023-07-13T14:16:15;2.78;;;2.00;;
27003;SDS011;14546;47.590;19.022;2023-07-13T14:18:42;3.00;;;2.05;;
27003;SDS011;14546;47.590;19.022;2023-07-13T14:21:13;5.18;;;2.08;;
27003;SDS011;14546;47.590;19.022;2023-07-13T14:23:39;4.07;;;2.00;;
27003;SDS011;14546;47.590;19.022;2023-07-13T14:26:10;2.75;;;2.20;;
27003;SDS011;14546;47.590;19.022;2023-07-13T14:28:37;3.42;;;2.47;;
27003;SDS011;14546;47.590;19.022;2023-07-13T14:31:04;2.03;;;1.85;;
27003;SDS011;14546;47.590;19.022;2023-07-13T14:33:30;3.65;;;2.35;;
27003;SDS011;14546;47.590;19.022;2023-07-13T14:35:56;6.88;;;2.50;;
27003;SDS011;14546;47.590;19.022;2023-07-13T14:38:22;4.00;;;2.08;;
27003;SDS011;14546;47.590;19.022;2023-07-13T14:40:48;4.53;;;2.72;;
27003;SDS011;14546;47.590;19.022;2023-07-13T14:43:15;4.07;;;2.78;;
27003;SDS011;14546;47.590;19.022;2023-07-13T14:45:43;4.43;;;2.40;;
27003;SDS011;14546;47.590;19.022;2023-07-13T14:48:14;3.00;;;2.10;;
27003;SDS011;14546;47.590;19.022;2023-07-13T14:50:41;4.35;;;2.55;;
27003;SDS011;14546;47.590;19.022;2023-07-13T14:53:09;4.75;;;2.10;;
27003;SDS011;14546;47.590;19.022;2023-07-13T14:55:35;4.22;;;2.40;;
27003;SDS011;14546;47.590;19.022;2023-07-13T14:58:01;13.55;;;2.42;;
27003;SDS011;14546;47.590;19.022;2023-07-13T15:00:27;4.50;;;2.10;;
27003;SDS011;14546;47.590;19.022;2023-07-13T15:02:55;3.08;;;2.25;;
27003;SDS011;14546;47.590;19.022;2023-07-13T15:05:29;5.45;;;2.60;;
27003;SDS011;14546;47.590;19.022;2023-07-13T15:07:59;2.22;;;2.03;;
27003;SDS011;14546;47.590;19.022;2023-07-13T15:10:30;3.92;;;2.60;;
27003;SDS011;14546;47.590;19.022;2023-07-13T15:13:00;5.15;;;2.08;;
27003;SDS011;14546;47.590;19.022;2023-07-13T15:15:28;2.42;;;1.92;;
27003;SDS011;14546;47.590;19.022;2023-07-13T15:17:54;3.25;;;2.28;;
27003;SDS011;14546;47.590;19.022;2023-07-13T15:20:23;4.50;;;2.58;;
27003;SDS011;14546;47.590;19.022;2023-07-13T15:22:50;7.15;;;2.40;;